createdAt,value
2022-08-21T00:01:12.085Z,98889.03
2022-08-21T00:03:42.472Z,98897.22
2022-08-21T00:06:13.994Z,98898.88
2022-08-21T00:08:44.129Z,98897.13
2022-08-21T00:11:15.855Z,98896.25
2022-08-21T00:13:46.355Z,98895.53
2022-08-21T00:16:16.556Z,98889.38
2022-08-21T00:18:46.956Z,98892.88
2022-08-21T00:21:17.572Z,98880.78
2022-08-21T00:23:47.460Z,98886.03
2022-08-21T00:26:18.786Z,98849.38
2022-08-21T00:28:50.035Z,98885.81
2022-08-21T00:31:20.077Z,98888.56
2022-08-21T00:33:50.067Z,98885.34
2022-08-21T00:36:19.953Z,98892.56
2022-08-21T00:38:51.080Z,98896.47
2022-08-21T00:41:37.290Z,98893.16
2022-08-21T00:44:11.387Z,98891.88
2022-08-21T00:46:42.650Z,98903.63
2022-08-21T00:49:14.234Z,98872.34
2022-08-21T00:51:50.827Z,98896.88
2022-08-21T00:54:22.678Z,98892.72
2022-08-21T00:56:59.537Z,98873.66
2022-08-21T00:59:36.724Z,98876.72
2022-08-21T01:02:09.061Z,98877.53
2022-08-21T01:04:39.640Z,98858.16
2022-08-21T01:07:09.916Z,98856.84
2022-08-21T01:09:39.872Z,98854.94
2022-08-21T01:12:13.193Z,98846.66
2022-08-21T01:14:44.913Z,98841.81
2022-08-21T01:17:16.632Z,98825.22
2022-08-21T01:19:46.517Z,98833.16
2022-08-21T01:22:17.828Z,98828.16
2022-08-21T01:24:47.685Z,98823.31
2022-08-21T01:27:35.746Z,98829.34
2022-08-21T01:30:12.259Z,98808.50
2022-08-21T01:32:42.655Z,98823.44
2022-08-21T01:35:14.173Z,98823.13
2022-08-21T01:37:46.195Z,98820.31
2022-08-21T01:40:18.063Z,98824.00
2022-08-21T01:42:49.626Z,98821.34
2022-08-21T01:45:20.139Z,98820.91
2022-08-21T01:47:49.941Z,98821.03
2022-08-21T01:50:22.297Z,98815.75
2022-08-21T01:52:54.113Z,98816.31
2022-08-21T01:55:24.869Z,98814.31
2022-08-21T01:57:54.795Z,98818.47
2022-08-21T02:00:25.543Z,98823.91
2022-08-21T02:02:55.678Z,98819.44
2022-08-21T02:05:25.541Z,98822.59
2022-08-21T02:07:57.674Z,98820.09
2022-08-21T02:10:30.174Z,98762.41
2022-08-21T02:13:01.971Z,98826.03
2022-08-21T02:15:33.447Z,98827.13
2022-08-21T02:18:07.367Z,98835.28
2022-08-21T02:20:40.763Z,98856.59
2022-08-21T02:23:13.536Z,98844.03
2022-08-21T02:25:43.664Z,98860.63
2022-08-21T02:28:15.449Z,98864.19
2022-08-21T02:30:47.718Z,98861.38
2022-08-21T02:33:19.100Z,98837.09
2022-08-21T02:35:50.115Z,98864.91
2022-08-21T02:38:25.111Z,98870.22
2022-08-21T02:40:56.254Z,98866.69
2022-08-21T02:43:28.415Z,98862.19
2022-08-21T02:46:00.318Z,98870.00
2022-08-21T02:48:32.880Z,98886.81
2022-08-21T02:51:07.560Z,98895.91
2022-08-21T02:53:39.273Z,98869.44
2022-08-21T02:56:13.248Z,98926.69
2022-08-21T02:58:45.111Z,98927.41
2022-08-21T03:01:15.644Z,98929.41
2022-08-21T03:03:47.311Z,98929.78
2022-08-21T03:06:19.082Z,98930.25
2022-08-21T03:08:50.736Z,98931.53
2022-08-21T03:11:21.819Z,98932.72
2022-08-21T03:13:52.475Z,98935.78
2022-08-21T03:16:22.963Z,98939.06
2022-08-21T03:18:54.133Z,98942.66
2022-08-21T03:21:24.820Z,98944.66
2022-08-21T03:23:56.625Z,98944.44
2022-08-21T03:26:28.060Z,98940.75
2022-08-21T03:28:58.771Z,98943.00
2022-08-21T03:31:31.804Z,98942.53
2022-08-21T03:34:01.956Z,98940.25
2022-08-21T03:36:32.114Z,98943.72
2022-08-21T03:39:03.628Z,98929.06
2022-08-21T03:41:33.640Z,98924.91
2022-08-21T03:44:03.596Z,98931.53
2022-08-21T03:46:33.429Z,98924.66
2022-08-21T03:49:03.263Z,98923.63
2022-08-21T03:51:34.663Z,98912.16
2022-08-21T03:54:06.110Z,98918.53
2022-08-21T03:56:36.115Z,98917.38
2022-08-21T03:59:06.153Z,98917.38
2022-08-21T04:01:37.142Z,98920.81
2022-08-21T04:04:07.377Z,98883.41
2022-08-21T04:06:37.977Z,98925.00
2022-08-21T04:09:09.283Z,98912.25
2022-08-21T04:11:39.751Z,98920.19
2022-08-21T04:14:10.115Z,98930.50
2022-08-21T04:16:40.640Z,98928.84
2022-08-21T04:19:11.290Z,98934.16
2022-08-21T04:21:41.810Z,98924.66
2022-08-21T04:24:15.304Z,98947.56
2022-08-21T04:26:45.280Z,98952.50
2022-08-21T04:29:15.175Z,98946.34
2022-08-21T04:31:45.657Z,98938.66
2022-08-21T04:34:15.638Z,98970.22
2022-08-21T04:36:45.559Z,98957.63
2022-08-21T04:39:16.832Z,98964.56
2022-08-21T04:41:48.113Z,98962.28
2022-08-21T04:44:17.997Z,98947.94
2022-08-21T04:46:48.184Z,98949.25
2022-08-21T04:49:18.383Z,98943.31
2022-08-21T04:52:04.595Z,98948.22
2022-08-21T04:54:35.876Z,98952.66
2022-08-21T04:57:10.467Z,98957.00
2022-08-21T04:59:43.092Z,98956.00
2022-08-21T05:02:14.879Z,98964.16
2022-08-21T05:04:50.713Z,98960.94
2022-08-21T05:07:42.136Z,98951.84
2022-08-21T05:10:15.305Z,98953.97
2022-08-21T05:12:47.019Z,98966.03
2022-08-21T05:15:18.224Z,98958.03
2022-08-21T05:17:52.529Z,98955.59
2022-08-21T05:20:30.025Z,98947.16
2022-08-21T05:23:01.018Z,98951.31
2022-08-21T05:25:32.486Z,98947.63
2022-08-21T05:28:05.009Z,98950.09
2022-08-21T05:30:36.235Z,98945.91
2022-08-21T05:33:08.097Z,98959.16
2022-08-21T05:35:39.602Z,98952.84
2022-08-21T05:38:18.317Z,98953.72
2022-08-21T05:40:50.276Z,98949.09
2022-08-21T05:43:20.133Z,98950.31
2022-08-21T05:45:50.068Z,98922.41
2022-08-21T05:48:22.385Z,98944.13
2022-08-21T05:50:54.232Z,98943.19
2022-08-21T05:53:26.226Z,98945.25
2022-08-21T05:55:58.376Z,98937.88
2022-08-21T05:58:28.362Z,98941.06
2022-08-21T06:00:59.911Z,98951.44
2022-08-21T06:03:32.080Z,98949.72
2022-08-21T06:06:03.341Z,98951.34
2022-08-21T06:08:33.314Z,98958.47
2022-08-21T06:11:06.927Z,98951.03
2022-08-21T06:13:37.900Z,98954.03
2022-08-21T06:16:10.979Z,98953.59
2022-08-21T06:18:41.687Z,98963.66
2022-08-21T06:21:12.438Z,98969.88
2022-08-21T06:23:43.527Z,98959.47
2022-08-21T06:26:16.072Z,98960.13
2022-08-21T06:28:46.084Z,98963.78
2022-08-21T06:31:18.214Z,98965.69
2022-08-21T06:33:48.191Z,98944.03
2022-08-21T06:36:18.541Z,98960.28
2022-08-21T06:38:51.050Z,98955.28
2022-08-21T06:41:24.046Z,98958.38
2022-08-21T06:43:54.504Z,98963.56
2022-08-21T06:46:25.089Z,98956.81
2022-08-21T06:48:55.470Z,98959.69
2022-08-21T06:51:26.480Z,98958.13
2022-08-21T06:53:58.842Z,98957.09
2022-08-21T06:56:30.921Z,98959.69
2022-08-21T06:59:03.034Z,98958.66
2022-08-21T07:01:33.074Z,98960.16
2022-08-21T07:04:03.433Z,98957.38
2022-08-21T07:06:34.091Z,98947.56
2022-08-21T07:09:06.115Z,98953.81
2022-08-21T07:11:42.466Z,98950.88
2022-08-21T07:14:20.477Z,98943.06
2022-08-21T07:16:52.405Z,98939.56
2022-08-21T07:19:22.971Z,98933.97
2022-08-21T07:21:53.388Z,98934.00
2022-08-21T07:24:24.066Z,98946.13
2022-08-21T07:26:55.670Z,98940.94
2022-08-21T07:29:25.490Z,98941.25
2022-08-21T07:31:55.364Z,98935.34
2022-08-21T07:34:25.349Z,98929.06
2022-08-21T07:36:55.247Z,98921.25
2022-08-21T07:39:25.293Z,98914.91
2022-08-21T07:41:56.624Z,98910.28
2022-08-21T07:44:26.601Z,98904.69
2022-08-21T07:46:56.645Z,98911.25
2022-08-21T07:49:26.596Z,98906.94
2022-08-21T07:51:57.568Z,98912.16
2022-08-21T07:54:33.564Z,98909.75
2022-08-21T07:57:06.520Z,98903.03
2022-08-21T07:59:36.563Z,98899.50
2022-08-21T08:02:06.501Z,98907.47
2022-08-21T08:04:36.465Z,98906.75
2022-08-21T08:07:06.352Z,98898.66
2022-08-21T08:09:37.217Z,98899.88
2022-08-21T08:12:09.548Z,98893.47
2022-08-21T08:14:39.780Z,98899.22
2022-08-21T08:17:09.701Z,98882.41
2022-08-21T08:19:39.887Z,98878.84
2022-08-21T08:22:15.667Z,98886.13
2022-08-21T08:24:45.460Z,98892.72
2022-08-21T08:27:17.399Z,98885.75
2022-08-21T08:29:48.344Z,98887.50
2022-08-21T08:32:18.263Z,98894.38
2022-08-21T08:34:49.747Z,98888.34
2022-08-21T08:37:21.231Z,98892.09
2022-08-21T08:39:53.995Z,98898.44
2022-08-21T08:42:32.970Z,98880.81
2022-08-21T08:45:08.763Z,98847.06
2022-08-21T08:47:42.159Z,98885.97
2022-08-21T08:50:14.431Z,98881.47
2022-08-21T08:52:50.075Z,98865.50
2022-08-21T08:55:27.136Z,98870.22
2022-08-21T08:57:59.332Z,98869.31
2022-08-21T09:00:29.443Z,98865.38
2022-08-21T09:03:01.888Z,98864.19
2022-08-21T09:05:39.500Z,98875.31
2022-08-21T09:08:22.867Z,98859.41
2022-08-21T09:11:03.825Z,98867.81
2022-08-21T09:13:47.265Z,98864.22
2022-08-21T09:16:26.363Z,98876.66
2022-08-21T09:19:05.059Z,98867.84
2022-08-21T09:21:52.159Z,98875.63
2022-08-21T09:24:32.512Z,98873.19
2022-08-21T09:27:08.659Z,98880.06
2022-08-21T09:29:42.623Z,98881.22
2022-08-21T09:32:18.812Z,98874.63
2022-08-21T09:35:00.747Z,98871.75
2022-08-21T09:37:32.790Z,98865.72
2022-08-21T09:40:16.154Z,98861.69
2022-08-21T09:42:57.923Z,98862.75
2022-08-21T09:45:33.813Z,98862.63
2022-08-21T09:48:11.947Z,98876.25
2022-08-21T09:50:43.285Z,98864.28
2022-08-21T09:53:21.492Z,98870.94
2022-08-21T09:56:12.504Z,98871.84
2022-08-21T09:58:45.587Z,98869.97
2022-08-21T10:01:19.237Z,98878.03
2022-08-21T10:04:05.057Z,98868.44
2022-08-21T10:06:36.959Z,98860.50
2022-08-21T10:09:13.580Z,98856.06
2022-08-21T10:11:55.044Z,98850.53
2022-08-21T10:14:40.215Z,98842.66
2022-08-21T10:17:22.731Z,98810.94
2022-08-21T10:20:01.282Z,98859.81
2022-08-21T10:22:40.605Z,98861.13
2022-08-21T10:25:20.022Z,98851.06
2022-08-21T10:27:59.259Z,98849.97
2022-08-21T10:30:41.016Z,98851.06
2022-08-21T10:33:30.685Z,98843.94
2022-08-21T10:36:09.104Z,98828.72
2022-08-21T10:39:17.778Z,98838.00
2022-08-21T10:42:08.539Z,98836.88
2022-08-21T10:44:47.449Z,98834.84
2022-08-21T10:47:22.691Z,98825.28
2022-08-21T10:50:05.309Z,98823.38
2022-08-21T10:52:53.631Z,98824.00
2022-08-21T10:55:27.894Z,98815.69
2022-08-21T10:58:00.792Z,98820.78
2022-08-21T11:00:37.596Z,98816.81
2022-08-21T11:03:13.100Z,98820.16
2022-08-21T11:05:51.139Z,98807.31
2022-08-21T11:08:32.328Z,98798.22
2022-08-21T11:11:08.823Z,98811.00
2022-08-21T11:13:43.652Z,98802.00
2022-08-21T11:16:23.948Z,98756.06
2022-08-21T11:19:02.466Z,98799.22
2022-08-21T11:21:40.631Z,98755.91
2022-08-21T11:24:29.085Z,98790.34
2022-08-21T11:27:05.590Z,98786.41
2022-08-21T11:29:41.107Z,98782.59
2022-08-21T11:32:41.287Z,98784.88
2022-08-21T11:35:26.029Z,98778.66
2022-08-21T11:38:14.498Z,98775.53
2022-08-21T11:41:01.426Z,98763.75
2022-08-21T11:43:39.797Z,98763.31
2022-08-21T11:46:19.836Z,98754.28
2022-08-21T11:49:08.738Z,98748.75
2022-08-21T11:51:44.871Z,98748.25
2022-08-21T11:54:26.887Z,98728.53
2022-08-21T11:57:03.888Z,98748.59
2022-08-21T11:59:48.186Z,98739.03
2022-08-21T12:02:22.159Z,98733.41
2022-08-21T12:04:57.610Z,98735.81
2022-08-21T12:07:37.251Z,98686.53
2022-08-21T12:10:12.813Z,98731.47
2022-08-21T12:12:46.123Z,98716.94
2022-08-21T12:15:29.911Z,98726.31
2022-08-21T12:18:06.627Z,98723.88
2022-08-21T12:20:50.050Z,98716.75
2022-08-21T12:23:29.607Z,98712.94
2022-08-21T12:26:29.711Z,98717.63
2022-08-21T12:29:13.958Z,98706.66
2022-08-21T12:31:56.456Z,98702.72
2022-08-21T12:34:34.892Z,98714.78
2022-08-21T12:37:08.794Z,98705.81
2022-08-21T12:39:48.375Z,98709.41
2022-08-21T12:42:23.172Z,98689.19
2022-08-21T12:45:04.867Z,98703.22
2022-08-21T12:47:48.351Z,98698.41
2022-08-21T12:50:22.441Z,98700.13
2022-08-21T12:52:59.334Z,98695.78
2022-08-21T12:55:31.650Z,98672.16
2022-08-21T12:58:02.447Z,98694.19
2022-08-21T13:00:33.728Z,98694.09
2022-08-21T13:03:03.915Z,98693.53
2022-08-21T13:05:37.775Z,98696.59
2022-08-21T13:08:10.256Z,98696.84
2022-08-21T13:10:42.763Z,98681.97
2022-08-21T13:13:25.036Z,98698.31
2022-08-21T13:16:02.590Z,98695.84
2022-08-21T13:18:35.917Z,98695.91
2022-08-21T13:21:08.581Z,98696.50
2022-08-21T13:23:38.515Z,98695.91
2022-08-21T13:26:18.615Z,98697.03
2022-08-21T13:28:50.524Z,98682.69
2022-08-21T13:31:26.992Z,98698.63
2022-08-21T13:33:57.674Z,98703.25
2022-08-21T13:36:33.421Z,98693.69
2022-08-21T13:39:05.169Z,98684.03
2022-08-21T13:41:37.921Z,98694.44
2022-08-21T13:44:20.631Z,98678.56
2022-08-21T13:46:52.698Z,98668.88
2022-08-21T13:49:28.836Z,98682.56
2022-08-21T13:51:58.804Z,98681.88
2022-08-21T13:54:35.809Z,98681.88
2022-08-21T13:57:06.224Z,98681.81
2022-08-21T13:59:38.377Z,98669.72
2022-08-21T14:02:16.119Z,98675.19
2022-08-21T14:04:54.124Z,98638.94
2022-08-21T14:07:29.740Z,98670.25
2022-08-21T14:10:03.339Z,98673.78
2022-08-21T14:12:40.250Z,98675.09
2022-08-21T14:15:14.628Z,98677.81
2022-08-21T14:17:47.318Z,98675.34
2022-08-21T14:20:29.926Z,98657.41
2022-08-21T14:23:00.448Z,98672.47
2022-08-21T14:25:40.812Z,98677.66
2022-08-21T14:28:22.055Z,98678.41
2022-08-21T14:31:14.556Z,98665.31
2022-08-21T14:33:46.541Z,98671.16
2022-08-21T14:36:16.776Z,98670.28
2022-08-21T14:38:47.014Z,98680.00
2022-08-21T14:41:20.537Z,98679.47
2022-08-21T14:43:55.776Z,98652.22
2022-08-21T14:46:36.496Z,98663.00
2022-08-21T14:49:17.297Z,98651.00
2022-08-21T14:51:54.417Z,98655.06
2022-08-21T14:54:29.587Z,98650.06
2022-08-21T14:57:05.696Z,98637.88
2022-08-21T14:59:36.930Z,98657.41
2022-08-21T15:02:08.083Z,98659.06
2022-08-21T15:04:39.796Z,98663.97
2022-08-21T15:07:09.916Z,98667.53
2022-08-21T15:09:40.001Z,98670.66
2022-08-21T15:12:10.931Z,98665.56
2022-08-21T15:14:44.156Z,98666.00
2022-08-21T15:17:14.282Z,98667.94
2022-08-21T15:19:45.600Z,98660.66
2022-08-21T15:22:19.055Z,98664.28
2022-08-21T15:24:56.975Z,98659.06
2022-08-21T15:27:27.094Z,98659.59
2022-08-21T15:29:57.648Z,98656.75
2022-08-21T15:32:31.185Z,98651.94
2022-08-21T15:35:02.561Z,98651.72
2022-08-21T15:37:33.407Z,98653.91
2022-08-21T15:40:03.540Z,98657.97
2022-08-21T15:42:34.084Z,98657.13
2022-08-21T15:45:05.525Z,98654.31
2022-08-21T15:47:38.968Z,98614.28
2022-08-21T15:50:12.499Z,98650.88
2022-08-21T15:52:42.512Z,98643.69
2022-08-21T15:55:13.461Z,98644.78
2022-08-21T15:57:58.211Z,98641.97
2022-08-21T16:00:29.516Z,98636.44
2022-08-21T16:03:01.289Z,98641.34
2022-08-21T16:05:33.602Z,98646.16
2022-08-21T16:08:03.673Z,98640.38
2022-08-21T16:10:33.833Z,98642.78
2022-08-21T16:13:07.184Z,98642.63
2022-08-21T16:15:37.802Z,98648.84
2022-08-21T16:18:07.722Z,98642.63
2022-08-21T16:20:39.682Z,98644.03
2022-08-21T16:23:09.792Z,98652.97
2022-08-21T16:25:41.979Z,98661.06
2022-08-21T16:28:19.221Z,98664.53
2022-08-21T16:30:51.838Z,98662.63
2022-08-21T16:33:26.636Z,98645.78
2022-08-21T16:35:58.205Z,98651.03
2022-08-21T16:38:29.189Z,98663.44
2022-08-21T16:40:59.581Z,98661.22
2022-08-21T16:43:31.199Z,98658.09
2022-08-21T16:46:04.078Z,98661.81
2022-08-21T16:48:34.018Z,98661.31
2022-08-21T16:51:06.181Z,98661.72
2022-08-21T16:53:36.401Z,98663.38
2022-08-21T16:56:08.240Z,98657.06
2022-08-21T16:58:41.287Z,98660.38
2022-08-21T17:01:16.156Z,98638.25
2022-08-21T17:03:48.704Z,98592.91
2022-08-21T17:06:21.111Z,98662.03
2022-08-21T17:08:52.662Z,98658.88
2022-08-21T17:11:37.524Z,98649.59
2022-08-21T17:14:12.189Z,98652.09
2022-08-21T17:16:45.536Z,98653.69
2022-08-21T17:19:16.031Z,98654.63
2022-08-21T17:21:47.503Z,98627.22
2022-08-21T17:24:17.633Z,98657.84
2022-08-21T17:26:49.140Z,98635.66
2022-08-21T17:29:22.063Z,98661.19
2022-08-21T17:31:51.939Z,98661.19
2022-08-21T17:34:22.201Z,98656.13
2022-08-21T17:36:54.126Z,98672.09
2022-08-21T17:39:26.555Z,98681.22
2022-08-21T17:42:00.181Z,98669.88
2022-08-21T17:44:30.380Z,98672.38
2022-08-21T17:47:01.095Z,98674.50
2022-08-21T17:49:31.037Z,98673.44
2022-08-21T17:52:02.424Z,98678.91
2022-08-21T17:54:32.841Z,98668.13
2022-08-21T17:57:03.118Z,98674.50
2022-08-21T17:59:34.185Z,98670.28
2022-08-21T18:02:09.739Z,98669.31
2022-08-21T18:04:50.638Z,98670.50
2022-08-21T18:07:31.847Z,98671.34
2022-08-21T18:10:03.648Z,98678.78
2022-08-21T18:12:34.321Z,98670.03
2022-08-21T18:15:08.194Z,98674.81
2022-08-21T18:17:38.841Z,98670.09
2022-08-21T18:20:10.183Z,98673.06
2022-08-21T18:22:41.772Z,98667.56
2022-08-21T18:25:12.342Z,98667.56
2022-08-21T18:27:45.737Z,98661.91
2022-08-21T18:30:18.593Z,98672.31
2022-08-21T18:32:49.703Z,98656.25
2022-08-21T18:35:19.782Z,98669.84
2022-08-21T18:37:51.105Z,98660.50
2022-08-21T18:40:21.541Z,98668.25
2022-08-21T18:42:55.535Z,98669.00
2022-08-21T18:45:26.465Z,98667.13
2022-08-21T18:47:58.266Z,98670.66
2022-08-21T18:50:29.843Z,98651.66
2022-08-21T18:53:01.178Z,98667.69
2022-08-21T18:55:32.702Z,98664.53
2022-08-21T18:58:03.314Z,98659.91
2022-08-21T19:00:44.307Z,98665.47
2022-08-21T19:03:15.396Z,98645.47
2022-08-21T19:05:52.419Z,98663.66
2022-08-21T19:08:27.291Z,98671.00
2022-08-21T19:11:02.414Z,98671.72
2022-08-21T19:13:32.912Z,98671.72
2022-08-21T19:16:05.413Z,98667.56
2022-08-21T19:18:42.195Z,98657.66
2022-08-21T19:21:12.703Z,98652.34
2022-08-21T19:23:52.661Z,98665.09
2022-08-21T19:26:24.716Z,98648.00
2022-08-21T19:28:59.602Z,98654.22
2022-08-21T19:31:32.668Z,98656.00
2022-08-21T19:34:07.051Z,98637.91
2022-08-21T19:36:37.942Z,98651.16
2022-08-21T19:39:11.012Z,98655.66
2022-08-21T19:41:45.745Z,98640.44
2022-08-21T19:44:23.519Z,98665.63
2022-08-21T19:46:54.963Z,98674.16
2022-08-21T19:49:33.247Z,98653.34
2022-08-21T19:52:12.872Z,98673.78
2022-08-21T19:54:45.485Z,98657.97
2022-08-21T19:57:15.927Z,98673.09
2022-08-21T19:59:47.341Z,98675.97
2022-08-21T20:02:19.798Z,98672.84
2022-08-21T20:04:54.096Z,98681.00
2022-08-21T20:07:26.855Z,98687.88
2022-08-21T20:09:58.548Z,98684.31
2022-08-21T20:12:29.044Z,98683.03
2022-08-21T20:15:00.176Z,98685.75
2022-08-21T20:17:30.111Z,98689.66
2022-08-21T20:20:00.261Z,98692.25
2022-08-21T20:22:31.288Z,98693.41
2022-08-21T20:25:03.811Z,98697.69
2022-08-21T20:27:36.396Z,98703.25
2022-08-21T20:30:12.727Z,98713.06
2022-08-21T20:32:43.729Z,98713.44
2022-08-21T20:35:13.788Z,98719.69
2022-08-21T20:37:43.701Z,98706.94
2022-08-21T20:40:16.708Z,98709.75
2022-08-21T20:42:53.853Z,98701.81
2022-08-21T20:45:26.152Z,98683.97
2022-08-21T20:48:02.746Z,98691.09
2022-08-21T20:50:38.332Z,98698.16
2022-08-21T20:53:15.387Z,98697.59
2022-08-21T20:55:50.279Z,98698.63
2022-08-21T20:58:30.195Z,98687.06
2022-08-21T21:01:04.417Z,98695.91
2022-08-21T21:03:39.197Z,98705.75
2022-08-21T21:06:17.461Z,98703.97
2022-08-21T21:08:51.480Z,98705.13
2022-08-21T21:11:26.217Z,98709.19
2022-08-21T21:14:01.481Z,98663.06
2022-08-21T21:16:37.485Z,98714.38
2022-08-21T21:19:12.628Z,98723.47
2022-08-21T21:21:51.497Z,98720.88
2022-08-21T21:24:51.315Z,98727.28
2022-08-21T21:27:29.540Z,98724.88
2022-08-21T21:30:12.187Z,98722.88
2022-08-21T21:32:45.401Z,98714.13
2022-08-21T21:35:22.354Z,98700.41
2022-08-21T21:38:10.931Z,98710.72
2022-08-21T21:40:53.952Z,98723.94
2022-08-21T21:43:55.946Z,98722.53
2022-08-21T21:46:35.015Z,98716.25
2022-08-21T21:49:19.454Z,98719.44
2022-08-21T21:52:00.559Z,98726.09
2022-08-21T21:54:54.916Z,98722.75
2022-08-21T21:57:39.643Z,98717.69
2022-08-21T22:00:17.394Z,98715.91
2022-08-21T22:03:00.154Z,98723.69
2022-08-21T22:05:51.012Z,98706.66
2022-08-21T22:08:31.925Z,98724.78
2022-08-21T22:11:08.682Z,98719.69
2022-08-21T22:13:46.544Z,98725.38
2022-08-21T22:16:19.598Z,98717.31
2022-08-21T22:19:03.078Z,98718.50
2022-08-21T22:21:39.961Z,98718.97
2022-08-21T22:24:17.839Z,98710.25
2022-08-21T22:26:51.879Z,98712.97
2022-08-21T22:29:22.864Z,98723.00
2022-08-21T22:32:06.823Z,98720.75
2022-08-21T22:34:37.146Z,98720.97
2022-08-21T22:37:11.872Z,98725.13
2022-08-21T22:39:46.055Z,98719.34
2022-08-21T22:45:21.948Z,98712.00
2022-08-21T22:47:54.595Z,98712.25
2022-08-21T22:50:32.503Z,98708.22
2022-08-21T22:53:06.863Z,98702.56
2022-08-21T22:55:43.788Z,98695.56
2022-08-21T22:58:20.431Z,98710.72
2022-08-21T23:00:56.731Z,98712.59
2022-08-21T23:03:33.719Z,98715.31
2022-08-21T23:06:12.695Z,98692.16
2022-08-21T23:11:40.665Z,98713.66
2022-08-21T23:14:14.711Z,98698.75
2022-08-21T23:16:57.525Z,98697.47
2022-08-21T23:19:39.237Z,98709.53
2022-08-21T23:22:28.377Z,98712.47
2022-08-21T23:25:12.596Z,98695.69
2022-08-21T23:27:56.174Z,98691.88
2022-08-21T23:30:40.789Z,98700.88
2022-08-21T23:33:26.887Z,98691.31
2022-08-21T23:36:25.059Z,98705.63
2022-08-21T23:39:11.667Z,98701.84
2022-08-21T23:41:47.024Z,98710.69
2022-08-21T23:44:33.462Z,98700.97
2022-08-21T23:47:15.421Z,98696.13
2022-08-21T23:49:54.010Z,98711.63
2022-08-21T23:52:37.550Z,98703.34
2022-08-21T23:55:44.145Z,98710.13
2022-08-21T23:58:30.525Z,98709.31
